createdAt,value
2018-12-31T00:00:25.008Z,77.87
2018-12-31T00:02:53.301Z,75.33
2018-12-31T00:05:21.600Z,77.30
2018-12-31T00:07:49.878Z,75.37
2018-12-31T00:10:18.179Z,78.13
2018-12-31T00:12:46.456Z,86.67
2018-12-31T00:15:14.761Z,78.80
2018-12-31T00:17:43.122Z,82.83
2018-12-31T00:20:11.416Z,82.20
2018-12-31T00:22:39.704Z,86.73
2018-12-31T00:25:08.005Z,81.97
2018-12-31T00:27:36.293Z,89.53
2018-12-31T00:30:05.270Z,89.27
2018-12-31T00:32:33.909Z,83.47
2018-12-31T00:35:02.205Z,83.40
2018-12-31T00:37:30.505Z,79.47
2018-12-31T00:39:58.794Z,84.37
2018-12-31T00:42:27.082Z,74.30
2018-12-31T00:44:55.369Z,82.17
2018-12-31T00:47:23.683Z,84.87
2018-12-31T00:49:51.966Z,76.30
2018-12-31T00:52:20.263Z,78.83
2018-12-31T00:54:48.556Z,82.63
2018-12-31T00:57:16.918Z,87.50
2018-12-31T00:59:45.510Z,81.10
2018-12-31T01:02:13.766Z,80.43
2018-12-31T01:04:42.323Z,79.90
2018-12-31T01:07:10.620Z,78.03
2018-12-31T01:09:38.932Z,78.40
2018-12-31T01:12:07.229Z,77.23
2018-12-31T01:14:35.512Z,77.83
2018-12-31T01:17:03.844Z,80.27
2018-12-31T01:19:32.243Z,81.80
2018-12-31T01:22:00.566Z,79.90
2018-12-31T01:24:28.938Z,75.83
2018-12-31T01:26:57.233Z,71.73
2018-12-31T01:29:25.561Z,79.57
2018-12-31T01:31:53.869Z,79.57
2018-12-31T01:34:22.491Z,74.43
2018-12-31T01:36:50.789Z,82.73
2018-12-31T01:39:19.098Z,83.60
2018-12-31T01:41:47.402Z,79.90
2018-12-31T01:44:15.702Z,89.00
2018-12-31T01:46:43.994Z,89.03
2018-12-31T01:49:12.327Z,84.53
2018-12-31T01:51:40.593Z,87.07
2018-12-31T01:54:08.913Z,91.67
2018-12-31T01:56:37.200Z,90.67
2018-12-31T01:59:05.840Z,86.43
2018-12-31T02:01:34.425Z,92.47
2018-12-31T02:04:02.799Z,84.73
2018-12-31T02:06:31.104Z,90.87
2018-12-31T02:08:59.684Z,85.63
2018-12-31T02:11:27.966Z,83.00
2018-12-31T02:13:56.518Z,82.53
2018-12-31T02:16:24.814Z,92.17
2018-12-31T02:18:53.095Z,87.70
2018-12-31T02:21:21.397Z,93.00
2018-12-31T02:23:49.674Z,85.47
2018-12-31T02:26:18.307Z,97.23
2018-12-31T02:28:46.607Z,99.27
2018-12-31T02:31:14.900Z,87.03
2018-12-31T02:33:43.181Z,90.97
2018-12-31T02:36:11.486Z,89.33
2018-12-31T02:38:39.766Z,83.53
2018-12-31T02:41:08.054Z,77.73
2018-12-31T02:43:36.335Z,84.53
2018-12-31T02:46:04.648Z,81.17
2018-12-31T02:48:32.933Z,81.60
2018-12-31T02:51:01.235Z,83.87
2018-12-31T02:53:29.509Z,86.67
2018-12-31T02:55:58.064Z,80.63
2018-12-31T02:58:26.352Z,85.27
2018-12-31T03:00:54.770Z,76.13
2018-12-31T03:03:23.021Z,75.43
2018-12-31T03:05:51.303Z,78.43
2018-12-31T03:08:19.607Z,77.17
2018-12-31T03:10:47.884Z,80.20
2018-12-31T03:13:16.186Z,73.17
2018-12-31T03:15:44.761Z,78.60
2018-12-31T03:18:13.139Z,82.83
2018-12-31T03:20:41.421Z,77.33
2018-12-31T03:23:09.725Z,75.00
2018-12-31T03:25:38.006Z,75.33
2018-12-31T03:28:06.348Z,71.70
2018-12-31T03:30:34.621Z,75.30
2018-12-31T03:33:02.905Z,67.73
2018-12-31T03:35:31.925Z,73.87
2018-12-31T03:38:00.216Z,72.37
2018-12-31T03:40:28.663Z,66.33
2018-12-31T03:42:56.899Z,71.17
2018-12-31T03:45:25.271Z,64.30
2018-12-31T03:47:53.562Z,73.07
2018-12-31T03:50:21.948Z,66.13
2018-12-31T03:52:50.548Z,69.97
2018-12-31T03:55:19.134Z,71.40
2018-12-31T03:57:47.425Z,68.47
2018-12-31T04:00:15.736Z,71.13
2018-12-31T04:02:44.026Z,69.57
2018-12-31T04:05:12.324Z,71.47
2018-12-31T04:07:40.603Z,72.77
2018-12-31T04:10:08.911Z,71.67
2018-12-31T04:12:37.277Z,70.97
2018-12-31T04:15:05.645Z,69.23
2018-12-31T04:17:34.254Z,69.57
2018-12-31T04:20:02.577Z,72.50
2018-12-31T04:22:30.855Z,68.80
2018-12-31T04:24:59.159Z,73.70
2018-12-31T04:27:27.488Z,68.63
2018-12-31T04:29:55.784Z,68.23
2018-12-31T04:32:24.073Z,67.10
2018-12-31T04:34:52.689Z,73.20
2018-12-31T04:37:21.268Z,70.57
2018-12-31T04:39:49.848Z,75.87
2018-12-31T04:42:18.154Z,69.30
2018-12-31T04:44:46.724Z,69.73
2018-12-31T04:47:15.029Z,71.77
2018-12-31T04:49:43.760Z,75.07
2018-12-31T04:52:12.068Z,72.63
2018-12-31T04:54:40.773Z,72.30
2018-12-31T04:57:09.077Z,71.13
2018-12-31T04:59:37.371Z,70.70
2018-12-31T05:02:05.978Z,69.70
2018-12-31T05:04:34.561Z,69.33
2018-12-31T05:07:03.160Z,71.27
2018-12-31T05:09:31.725Z,73.60
2018-12-31T05:12:00.026Z,77.50
2018-12-31T05:14:28.312Z,71.10
2018-12-31T05:16:56.613Z,78.47
2018-12-31T05:19:25.257Z,71.13
2018-12-31T05:21:53.824Z,77.30
2018-12-31T05:24:22.135Z,74.87
2018-12-31T05:26:50.413Z,79.83
2018-12-31T05:29:18.714Z,79.63
2018-12-31T05:31:46.997Z,79.33
2018-12-31T05:34:15.303Z,81.57
2018-12-31T05:36:43.923Z,83.13
2018-12-31T05:39:13.519Z,73.83
2018-12-31T05:41:42.085Z,77.47
2018-12-31T05:44:10.386Z,78.60
2018-12-31T05:46:38.674Z,78.53
2018-12-31T05:49:06.976Z,81.23
2018-12-31T05:51:35.257Z,88.67
2018-12-31T05:54:03.547Z,87.97
2018-12-31T05:56:31.839Z,83.43
2018-12-31T05:59:00.145Z,85.60
2018-12-31T06:01:28.430Z,86.43
2018-12-31T06:03:56.723Z,83.93
2018-12-31T06:06:25.361Z,82.80
2018-12-31T06:08:53.951Z,79.70
2018-12-31T06:11:22.551Z,79.10
2018-12-31T06:13:51.112Z,77.07
2018-12-31T06:16:19.421Z,76.90
2018-12-31T06:18:47.706Z,82.07
2018-12-31T06:21:16.004Z,82.40
2018-12-31T06:23:44.290Z,84.77
2018-12-31T06:26:12.920Z,79.37
2018-12-31T06:28:41.209Z,83.57
2018-12-31T06:31:09.528Z,78.37
2018-12-31T06:33:37.831Z,79.93
2018-12-31T06:36:06.156Z,78.57
2018-12-31T06:38:34.803Z,82.87
2018-12-31T06:41:03.099Z,72.23
2018-12-31T06:43:31.657Z,73.50
2018-12-31T06:46:00.248Z,77.27
2018-12-31T06:48:28.561Z,78.80
2018-12-31T06:50:56.854Z,79.27
2018-12-31T06:53:25.154Z,79.93
2018-12-31T06:55:53.445Z,82.80
2018-12-31T06:58:21.743Z,75.83
2018-12-31T07:00:50.172Z,79.90
2018-12-31T07:03:18.476Z,79.03
2018-12-31T07:05:46.762Z,82.13
2018-12-31T07:08:15.109Z,85.50
2018-12-31T07:10:44.319Z,86.57
2018-12-31T07:13:18.423Z,90.57
2018-12-31T07:15:47.628Z,78.90
2018-12-31T07:18:15.932Z,87.53
2018-12-31T07:20:44.303Z,95.10
2018-12-31T07:23:12.583Z,90.67
2018-12-31T07:25:40.957Z,83.37
2018-12-31T07:28:09.252Z,87.27
2018-12-31T07:30:37.549Z,91.07
2018-12-31T07:33:05.835Z,94.87
2018-12-31T07:35:34.133Z,94.50
2018-12-31T07:38:02.762Z,98.23
2018-12-31T07:40:31.338Z,91.00
2018-12-31T07:42:59.627Z,94.30
2018-12-31T07:45:27.932Z,95.77
2018-12-31T07:47:56.227Z,102.10
2018-12-31T07:50:24.859Z,99.50
2018-12-31T07:52:53.435Z,99.33
2018-12-31T07:55:21.751Z,98.80
2018-12-31T07:57:50.055Z,95.53
2018-12-31T08:00:18.362Z,96.37
2018-12-31T08:02:46.666Z,92.27
2018-12-31T08:05:14.975Z,93.23
2018-12-31T08:07:43.266Z,92.30
2018-12-31T08:10:11.569Z,100.83
2018-12-31T08:12:39.886Z,101.47
2018-12-31T08:15:08.172Z,97.87
2018-12-31T08:17:36.492Z,104.33
2018-12-31T08:20:06.122Z,107.23
2018-12-31T08:22:34.429Z,106.33
2018-12-31T08:25:02.725Z,104.37
2018-12-31T08:27:31.032Z,103.53
2018-12-31T08:29:59.339Z,106.80
2018-12-31T08:32:27.650Z,100.83
2018-12-31T08:34:55.949Z,107.13
2018-12-31T08:37:24.257Z,101.27
2018-12-31T08:39:52.844Z,103.63
2018-12-31T08:42:21.152Z,97.43
2018-12-31T08:44:49.438Z,98.17
2018-12-31T08:47:17.739Z,96.67
2018-12-31T08:49:46.021Z,92.67
2018-12-31T08:52:14.324Z,87.30
2018-12-31T08:54:42.609Z,87.83
2018-12-31T08:57:10.928Z,90.07
2018-12-31T08:59:39.228Z,91.90
2018-12-31T09:02:07.521Z,90.90
2018-12-31T09:04:35.829Z,90.53
2018-12-31T09:07:04.197Z,89.00
2018-12-31T09:09:32.498Z,90.80
2018-12-31T09:12:01.067Z,82.33
2018-12-31T09:14:29.385Z,85.53
2018-12-31T09:16:57.673Z,93.53
2018-12-31T09:19:25.978Z,97.10
2018-12-31T09:21:54.276Z,99.90
2018-12-31T09:24:22.840Z,92.10
2018-12-31T09:26:51.429Z,87.57
2018-12-31T09:29:20.029Z,89.53
2018-12-31T09:31:48.316Z,91.53
2018-12-31T09:34:16.655Z,95.60
2018-12-31T09:36:45.246Z,88.30
2018-12-31T09:39:13.534Z,93.47
2018-12-31T09:41:41.909Z,86.07
2018-12-31T09:44:10.484Z,89.73
2018-12-31T09:46:39.072Z,85.57
2018-12-31T09:49:07.408Z,93.07
2018-12-31T09:51:35.709Z,92.00
2018-12-31T09:54:04.030Z,87.93
2018-12-31T09:56:32.995Z,96.80
2018-12-31T09:59:01.284Z,92.07
2018-12-31T10:01:29.586Z,92.33
2018-12-31T10:03:57.918Z,92.80
2018-12-31T10:06:26.251Z,95.50
2018-12-31T10:08:56.246Z,93.83
2018-12-31T10:11:24.921Z,86.60
2018-12-31T10:13:53.236Z,86.43
2018-12-31T10:16:21.542Z,86.27
2018-12-31T10:18:49.859Z,80.23
2018-12-31T10:21:18.210Z,82.23
2018-12-31T10:23:46.486Z,90.13
2018-12-31T10:26:14.774Z,82.50
2018-12-31T10:28:43.145Z,80.37
2018-12-31T10:31:11.488Z,83.90
2018-12-31T10:33:39.790Z,77.73
2018-12-31T10:36:08.082Z,81.73
2018-12-31T10:38:37.944Z,76.37
2018-12-31T10:41:06.237Z,76.33
2018-12-31T10:43:34.537Z,77.63
2018-12-31T10:46:03.145Z,90.73
2018-12-31T10:48:31.440Z,84.13
2018-12-31T10:50:59.739Z,78.57
2018-12-31T10:53:28.041Z,82.43
2018-12-31T10:55:56.326Z,82.17
2018-12-31T10:58:24.923Z,80.87
2018-12-31T11:00:53.217Z,81.30
2018-12-31T11:03:21.520Z,80.03
2018-12-31T11:05:50.159Z,86.93
2018-12-31T11:08:18.876Z,84.00
2018-12-31T11:10:47.430Z,84.43
2018-12-31T11:13:16.024Z,88.13
2018-12-31T11:15:44.322Z,84.37
2018-12-31T11:18:12.989Z,85.83
2018-12-31T11:20:41.275Z,90.03
2018-12-31T11:23:09.573Z,86.73
2018-12-31T11:25:37.923Z,88.33
2018-12-31T11:28:06.243Z,87.27
2018-12-31T11:30:34.529Z,92.90
2018-12-31T11:33:03.152Z,85.87
2018-12-31T11:35:31.449Z,77.07
2018-12-31T11:37:59.754Z,76.60
2018-12-31T11:40:28.046Z,77.30
2018-12-31T11:42:56.360Z,73.97
2018-12-31T11:45:24.652Z,74.10
2018-12-31T11:47:52.946Z,79.13
2018-12-31T11:50:21.249Z,72.23
2018-12-31T11:52:49.553Z,69.30
2018-12-31T11:55:17.849Z,73.73
2018-12-31T11:57:46.141Z,75.97
2018-12-31T12:00:14.442Z,70.57
2018-12-31T12:02:42.779Z,75.47
2018-12-31T12:05:11.065Z,76.23
2018-12-31T12:07:39.740Z,76.27
2018-12-31T12:10:08.078Z,75.23
2018-12-31T12:12:36.363Z,69.70
2018-12-31T12:15:05.007Z,80.33
2018-12-31T12:17:33.298Z,73.77
2018-12-31T12:20:01.868Z,78.20
2018-12-31T12:22:30.436Z,74.60
2018-12-31T12:24:58.735Z,72.17
2018-12-31T12:27:27.020Z,79.60
2018-12-31T12:29:55.324Z,72.03
2018-12-31T12:32:23.616Z,73.70
2018-12-31T12:34:52.216Z,82.37
2018-12-31T12:37:20.794Z,77.33
2018-12-31T12:39:49.094Z,88.97
2018-12-31T12:42:17.450Z,87.07
2018-12-31T12:44:46.031Z,87.83
2018-12-31T12:47:14.613Z,96.23
2018-12-31T12:49:42.950Z,108.87
2018-12-31T12:52:11.577Z,81.93
2018-12-31T12:54:39.971Z,83.23
2018-12-31T12:57:08.307Z,85.07
2018-12-31T12:59:36.597Z,85.07
2018-12-31T13:02:04.915Z,79.53
2018-12-31T13:04:33.193Z,70.33
2018-12-31T13:07:01.503Z,71.77
2018-12-31T13:09:29.795Z,70.33
2018-12-31T13:11:58.431Z,76.50
2018-12-31T13:14:26.733Z,82.87
2018-12-31T13:16:55.368Z,78.10
2018-12-31T13:19:23.967Z,84.77
2018-12-31T13:21:52.557Z,113.53
2018-12-31T13:24:21.229Z,81.97
2018-12-31T13:26:49.925Z,70.37
2018-12-31T13:29:18.215Z,72.27
2018-12-31T13:31:46.520Z,75.90
2018-12-31T13:34:14.809Z,70.60
2018-12-31T13:36:43.422Z,70.37
2018-12-31T13:39:12.325Z,68.67
2018-12-31T13:41:40.599Z,62.07
2018-12-31T13:44:08.906Z,61.60
2018-12-31T13:46:37.192Z,63.00
2018-12-31T13:49:05.734Z,65.30
2018-12-31T13:51:34.022Z,65.57
2018-12-31T13:54:02.324Z,66.00
2018-12-31T13:56:30.618Z,63.77
2018-12-31T13:58:58.917Z,62.30
2018-12-31T14:01:27.202Z,65.30
2018-12-31T14:03:55.516Z,65.90
2018-12-31T14:06:23.808Z,68.57
2018-12-31T14:08:52.115Z,68.87
2018-12-31T14:11:20.433Z,67.43
2018-12-31T14:13:48.726Z,128.57
2018-12-31T14:16:17.021Z,103.10
2018-12-31T14:18:45.339Z,104.03
2018-12-31T14:21:13.902Z,95.87
2018-12-31T14:23:42.212Z,746.63
2018-12-31T14:26:10.600Z,100.47
2018-12-31T14:28:39.008Z,494.73
2018-12-31T14:31:07.964Z,79.20
2018-12-31T14:33:36.265Z,50.47
2018-12-31T14:36:04.570Z,53.03
2018-12-31T14:38:33.222Z,50.93
2018-12-31T14:41:01.527Z,57.57
2018-12-31T14:43:29.890Z,55.63
2018-12-31T14:45:58.272Z,56.57
2018-12-31T14:48:26.558Z,52.60
2018-12-31T14:50:55.306Z,59.73
2018-12-31T14:53:23.590Z,68.03
2018-12-31T14:55:52.026Z,60.67
2018-12-31T14:58:20.320Z,56.67
2018-12-31T15:00:48.744Z,55.87
2018-12-31T15:03:17.406Z,54.47
2018-12-31T15:05:46.056Z,57.50
2018-12-31T15:08:14.263Z,58.20
2018-12-31T15:10:42.588Z,56.33
2018-12-31T15:13:10.872Z,57.47
2018-12-31T15:15:39.162Z,62.30
2018-12-31T15:18:07.840Z,57.70
2018-12-31T15:20:36.470Z,60.93
2018-12-31T15:23:04.787Z,59.03
2018-12-31T15:25:33.427Z,58.10
2018-12-31T15:28:03.377Z,59.20
2018-12-31T15:30:31.661Z,55.80
2018-12-31T15:33:00.413Z,55.60
2018-12-31T15:35:28.882Z,55.57
2018-12-31T15:37:57.242Z,56.50
2018-12-31T15:40:25.471Z,57.63
2018-12-31T15:42:54.124Z,59.77
2018-12-31T15:45:22.408Z,58.83
2018-12-31T15:47:51.106Z,61.37
2018-12-31T15:50:19.389Z,63.10
2018-12-31T15:52:47.938Z,61.47
2018-12-31T15:55:16.237Z,59.83
2018-12-31T15:57:44.617Z,64.37
2018-12-31T16:00:13.186Z,58.43
2018-12-31T16:02:41.520Z,59.07
2018-12-31T16:05:09.889Z,55.20
2018-12-31T16:07:45.373Z,70.50
2018-12-31T16:10:08.649Z,64.87
2018-12-31T16:12:36.947Z,60.70
2018-12-31T16:15:06.798Z,56.97
2018-12-31T16:17:35.130Z,60.20
2018-12-31T16:20:04.101Z,102.37
2018-12-31T16:22:32.393Z,70.97
2018-12-31T16:25:00.704Z,64.97
2018-12-31T16:27:28.999Z,62.53
2018-12-31T16:29:57.633Z,62.47
2018-12-31T16:32:26.211Z,58.90
2018-12-31T16:34:54.512Z,61.20
2018-12-31T16:37:22.801Z,62.80
2018-12-31T16:39:51.390Z,56.20
2018-12-31T16:42:19.680Z,58.73
2018-12-31T16:44:48.301Z,64.93
2018-12-31T16:47:16.596Z,63.43
2018-12-31T16:49:44.980Z,62.20
2018-12-31T16:52:13.543Z,60.17
2018-12-31T16:54:42.081Z,66.00
2018-12-31T16:57:10.741Z,69.80
2018-12-31T16:59:38.992Z,59.80
2018-12-31T17:02:08.200Z,62.30
2018-12-31T17:04:36.571Z,59.30
2018-12-31T17:07:04.881Z,63.27
2018-12-31T17:09:33.177Z,58.13
2018-12-31T17:12:01.474Z,56.40
2018-12-31T17:14:30.079Z,59.17
2018-12-31T17:16:58.391Z,57.83
2018-12-31T17:19:26.950Z,58.67
2018-12-31T17:21:55.363Z,55.03
2018-12-31T17:24:23.672Z,57.17
2018-12-31T17:26:52.237Z,57.77
2018-12-31T17:29:20.522Z,79.33
2018-12-31T17:32:34.729Z,69.57
2018-12-31T17:35:03.040Z,61.67
2018-12-31T17:37:31.727Z,62.97
2018-12-31T17:40:00.366Z,53.20
2018-12-31T17:42:28.942Z,54.17
2018-12-31T17:44:58.574Z,60.67
2018-12-31T17:47:26.947Z,59.03
2018-12-31T17:49:55.613Z,62.63
2018-12-31T17:52:23.932Z,56.33
2018-12-31T17:54:52.513Z,55.53
2018-12-31T17:57:21.048Z,57.93
2018-12-31T17:59:49.607Z,61.93
2018-12-31T18:02:17.904Z,60.70
2018-12-31T18:04:47.832Z,66.97
2018-12-31T18:07:16.125Z,64.47
2018-12-31T18:09:44.438Z,66.13
2018-12-31T18:12:13.006Z,63.77
2018-12-31T18:14:41.322Z,65.50
2018-12-31T18:17:11.865Z,58.67
2018-12-31T18:19:39.894Z,66.33
2018-12-31T18:22:08.461Z,69.67
2018-12-31T18:24:36.777Z,62.37
2018-12-31T18:27:05.077Z,66.50
2018-12-31T18:29:33.703Z,60.37
2018-12-31T18:32:01.992Z,66.50
2018-12-31T18:34:30.289Z,73.17
2018-12-31T18:36:58.587Z,64.97
2018-12-31T18:39:26.895Z,66.73
2018-12-31T18:41:55.481Z,66.57
2018-12-31T18:44:23.802Z,68.37
2018-12-31T18:46:52.428Z,63.57
2018-12-31T18:49:21.711Z,64.17
2018-12-31T18:51:50.000Z,63.63
2018-12-31T18:54:18.317Z,69.73
2018-12-31T18:56:46.606Z,77.13
2018-12-31T18:59:16.196Z,66.73
2018-12-31T19:01:44.458Z,66.83
2018-12-31T19:04:12.774Z,65.33
2018-12-31T19:06:41.086Z,67.63
2018-12-31T19:09:10.806Z,62.30
2018-12-31T19:11:39.174Z,62.97
2018-12-31T19:14:07.466Z,68.23
2018-12-31T19:16:35.789Z,63.43
2018-12-31T19:19:04.088Z,114.13
2018-12-31T19:21:32.876Z,68.30
2018-12-31T19:24:01.163Z,65.80
2018-12-31T19:26:29.474Z,64.50
2018-12-31T19:28:57.762Z,62.13
2018-12-31T19:31:26.539Z,61.47
2018-12-31T19:33:54.870Z,66.80
2018-12-31T19:36:23.412Z,70.90
2018-12-31T19:38:51.747Z,124.57
2018-12-31T19:41:19.993Z,66.67
2018-12-31T19:43:48.640Z,59.33
2018-12-31T19:46:17.311Z,62.60
2018-12-31T19:48:45.893Z,62.03
2018-12-31T19:51:14.260Z,73.37
2018-12-31T19:53:42.669Z,65.90
2018-12-31T19:56:11.330Z,58.47
2018-12-31T19:58:40.601Z,59.83
2018-12-31T20:01:08.908Z,67.00
2018-12-31T20:03:37.595Z,66.10
2018-12-31T20:06:06.200Z,64.73
2018-12-31T20:08:34.490Z,63.70
2018-12-31T20:11:02.797Z,64.10
2018-12-31T20:13:31.094Z,61.37
2018-12-31T20:15:59.394Z,63.17
2018-12-31T20:18:27.684Z,60.57
2018-12-31T20:20:56.258Z,66.07
2018-12-31T20:23:24.570Z,64.13
2018-12-31T20:25:53.123Z,61.93
2018-12-31T20:28:21.786Z,66.53
2018-12-31T20:30:50.380Z,61.67
2018-12-31T20:33:18.958Z,59.80
2018-12-31T20:35:47.568Z,55.47
2018-12-31T20:38:15.881Z,60.90
2018-12-31T20:40:45.088Z,60.90
2018-12-31T20:43:14.434Z,58.27
2018-12-31T20:45:42.810Z,56.87
2018-12-31T20:48:11.097Z,56.13
2018-12-31T20:50:39.381Z,60.50
2018-12-31T20:53:07.685Z,62.23
2018-12-31T20:55:36.320Z,58.83
2018-12-31T20:58:04.625Z,61.37
2018-12-31T21:00:33.082Z,63.03
2018-12-31T21:03:02.701Z,55.83
2018-12-31T21:05:31.008Z,55.03
2018-12-31T21:07:59.568Z,55.33
2018-12-31T21:10:28.228Z,58.03
2018-12-31T21:12:56.524Z,60.73
2018-12-31T21:15:24.806Z,61.27
2018-12-31T21:17:53.114Z,58.50
2018-12-31T21:20:21.402Z,57.33
2018-12-31T21:22:49.694Z,54.53
2018-12-31T21:25:18.293Z,54.47
2018-12-31T21:27:46.588Z,55.90
2018-12-31T21:30:20.710Z,53.87
2018-12-31T21:32:48.952Z,127.77
2018-12-31T21:35:17.265Z,81.30
2018-12-31T21:37:45.550Z,81.67
2018-12-31T21:40:13.840Z,61.73
2018-12-31T21:42:42.117Z,58.17
2018-12-31T21:45:11.674Z,62.83
2018-12-31T21:47:39.952Z,57.10
2018-12-31T21:50:08.953Z,62.13
2018-12-31T21:52:37.585Z,59.97
2018-12-31T21:55:06.524Z,56.90
2018-12-31T21:57:34.825Z,65.67
2018-12-31T22:00:03.598Z,48.90
2018-12-31T22:02:31.873Z,51.37
2018-12-31T22:05:00.446Z,47.30
2018-12-31T22:07:28.752Z,43.10
2018-12-31T22:09:57.035Z,46.43
2018-12-31T22:12:27.984Z,42.80
2018-12-31T22:14:56.283Z,44.73
2018-12-31T22:17:24.979Z,49.43
2018-12-31T22:19:53.264Z,43.00
2018-12-31T22:22:21.580Z,45.73
2018-12-31T22:24:49.869Z,43.80
2018-12-31T22:27:18.169Z,41.80
2018-12-31T22:29:46.527Z,44.30
2018-12-31T22:32:14.822Z,43.00
2018-12-31T22:34:43.113Z,54.77
2018-12-31T22:37:11.421Z,43.50
2018-12-31T22:39:39.708Z,42.77
2018-12-31T22:42:08.382Z,42.67
2018-12-31T22:44:36.982Z,45.73
2018-12-31T22:47:05.650Z,68.47
2018-12-31T22:49:33.933Z,66.43
2018-12-31T22:52:02.309Z,52.83
2018-12-31T22:54:30.653Z,49.37
2018-12-31T22:56:59.357Z,54.63
2018-12-31T22:59:27.658Z,122.03
2018-12-31T23:01:55.949Z,361.23
2018-12-31T23:04:24.261Z,392.27
2018-12-31T23:06:54.014Z,450.37
2018-12-31T23:09:22.802Z,695.90
2018-12-31T23:11:51.115Z,400.37
2018-12-31T23:14:19.409Z,485.00
2018-12-31T23:16:48.049Z,544.97
2018-12-31T23:19:16.445Z,733.07
2018-12-31T23:21:44.742Z,290.10
2018-12-31T23:24:13.036Z,262.80
2018-12-31T23:26:41.678Z,200.50
2018-12-31T23:29:09.992Z,175.57
2018-12-31T23:31:38.620Z,160.27
2018-12-31T23:34:07.016Z,159.70
2018-12-31T23:36:35.643Z,169.43
2018-12-31T23:39:05.661Z,180.60
2018-12-31T23:41:33.964Z,145.90
2018-12-31T23:44:02.276Z,147.10
2018-12-31T23:46:30.844Z,138.87
2018-12-31T23:48:59.328Z,158.70
2018-12-31T23:51:27.626Z,151.90
2018-12-31T23:53:55.945Z,125.03
2018-12-31T23:56:24.663Z,123.07
2018-12-31T23:58:54.192Z,116.77
